createdAt,value
2022-08-25T00:00:42.438Z,101981.69
2022-08-25T00:05:46.788Z,101987.66
2022-08-25T00:10:59.873Z,101991.44
2022-08-25T00:16:06.636Z,101986.09
2022-08-25T00:21:09.797Z,101985.97
2022-08-25T00:26:15.634Z,101976.88
2022-08-25T00:31:21.856Z,101981.91
2022-08-25T00:36:24.754Z,101978.97
2022-08-25T00:41:29.095Z,101987.72
2022-08-25T00:46:35.944Z,101982.56
2022-08-25T00:51:43.959Z,101978.25
2022-08-25T00:56:48.374Z,101971.09
2022-08-25T01:01:52.163Z,101970.75
2022-08-25T01:06:55.737Z,101975.75
2022-08-25T01:12:00.741Z,101969.03
2022-08-25T01:17:03.689Z,101975.19
2022-08-25T01:22:07.925Z,101973.56
2022-08-25T01:27:11.996Z,101973.09
2022-08-25T01:32:15.680Z,101972.50
2022-08-25T01:37:20.657Z,101981.44
2022-08-25T01:42:38.755Z,101972.03
2022-08-25T01:47:41.707Z,101966.31
2022-08-25T01:52:55.142Z,101972.97
2022-08-25T01:57:59.712Z,101967.94
2022-08-25T02:03:02.626Z,101971.75
2022-08-25T02:08:10.349Z,101971.88
2022-08-25T02:13:14.325Z,101969.44
2022-08-25T02:18:17.599Z,101972.50
2022-08-25T02:23:22.006Z,101959.13
2022-08-25T02:28:25.163Z,101957.50
2022-08-25T02:33:28.362Z,101949.84
2022-08-25T02:38:32.843Z,101955.38
2022-08-25T02:43:35.692Z,101948.47
2022-08-25T02:48:39.374Z,101947.03
2022-08-25T02:53:45.989Z,101948.13
2022-08-25T02:58:49.163Z,101950.94
2022-08-25T03:03:53.085Z,101944.63
2022-08-25T03:08:57.404Z,101950.78
2022-08-25T03:14:00.251Z,101945.44
2022-08-25T03:19:03.735Z,101944.56
2022-08-25T03:24:09.850Z,101937.72
2022-08-25T03:29:13.779Z,101938.72
2022-08-25T03:34:18.452Z,101934.38
2022-08-25T03:39:24.622Z,101933.53
2022-08-25T03:44:27.427Z,101933.56
2022-08-25T03:49:30.939Z,101925.38
2022-08-25T03:54:37.476Z,101933.34
2022-08-25T03:59:40.316Z,101923.53
2022-08-25T04:04:43.142Z,101920.56
2022-08-25T04:09:47.955Z,101923.50
2022-08-25T04:14:50.808Z,101925.56
2022-08-25T04:19:53.660Z,101921.41
2022-08-25T04:24:59.232Z,101920.66
2022-08-25T04:30:02.364Z,101920.72
2022-08-25T04:35:05.968Z,101917.31
2022-08-25T04:40:11.869Z,101916.47
2022-08-25T04:45:14.731Z,101919.22
2022-08-25T04:50:17.694Z,101932.78
2022-08-25T04:55:21.948Z,101932.13
2022-08-25T05:00:24.777Z,101928.72
2022-08-25T05:05:27.737Z,101931.44
2022-08-25T05:10:31.961Z,101936.81
2022-08-25T05:15:52.867Z,101934.38
2022-08-25T05:20:56.837Z,101939.97
2022-08-25T05:26:05.909Z,101942.78
2022-08-25T05:31:12.086Z,101933.09
2022-08-25T05:36:16.383Z,101944.69
2022-08-25T05:41:26.093Z,101936.75
2022-08-25T05:46:31.644Z,101937.59
2022-08-25T05:51:35.156Z,101937.78
2022-08-25T05:56:40.314Z,101930.09
2022-08-25T06:02:00.431Z,101927.50
2022-08-25T06:07:03.240Z,101918.56
2022-08-25T06:12:08.670Z,101919.69
2022-08-25T06:17:12.132Z,101920.66
2022-08-25T06:22:14.924Z,101923.38
2022-08-25T06:27:19.123Z,101925.34
2022-08-25T06:32:21.932Z,101925.44
2022-08-25T06:37:25.393Z,101920.94
2022-08-25T06:42:29.680Z,101916.41
2022-08-25T06:47:32.468Z,101922.84
2022-08-25T06:52:35.703Z,101918.50
2022-08-25T06:57:39.957Z,101918.97
2022-08-25T07:02:43.345Z,101924.00
2022-08-25T07:07:47.401Z,101918.13
2022-08-25T07:12:51.835Z,101920.16
2022-08-25T07:17:54.602Z,101918.75
2022-08-25T07:22:57.585Z,101908.38
2022-08-25T07:28:02.011Z,101906.03
2022-08-25T07:33:06.794Z,101904.47
2022-08-25T07:38:12.320Z,101904.09
2022-08-25T07:43:19.693Z,101902.09
2022-08-25T07:48:22.884Z,101912.41
2022-08-25T07:53:25.989Z,101910.75
2022-08-25T07:58:30.401Z,101913.72
2022-08-25T08:03:50.554Z,101919.94
2022-08-25T08:08:57.761Z,101919.19
2022-08-25T08:14:03.979Z,101921.28
2022-08-25T08:19:06.848Z,101917.78
2022-08-25T08:24:25.053Z,101915.34
2022-08-25T08:29:35.082Z,101916.56
2022-08-25T08:34:38.246Z,101908.75
2022-08-25T08:39:41.445Z,101897.13
2022-08-25T08:45:09.739Z,101896.31
2022-08-25T08:50:27.785Z,101904.84
2022-08-25T08:55:40.037Z,101909.44
2022-08-25T09:00:51.949Z,101901.56
2022-08-25T09:06:00.440Z,101916.97
2022-08-25T09:11:10.190Z,101905.38
2022-08-25T09:16:37.377Z,101902.84
2022-08-25T09:21:48.630Z,101905.69
2022-08-25T09:27:01.930Z,101896.84
2022-08-25T09:32:08.375Z,101886.34
2022-08-25T09:37:13.397Z,101888.44
2022-08-25T09:42:16.214Z,101879.72
2022-08-25T09:47:29.118Z,101864.66
2022-08-25T09:52:35.509Z,101862.44
2022-08-25T09:57:46.138Z,101852.78
2022-08-25T10:03:07.976Z,101832.25
2022-08-25T10:08:14.542Z,101841.31
2022-08-25T10:13:22.900Z,101826.09
2022-08-25T10:18:29.976Z,101813.50
2022-08-25T10:23:36.408Z,101807.38
2022-08-25T10:28:48.198Z,101787.81
2022-08-25T10:34:06.990Z,101788.03
2022-08-25T10:39:34.649Z,101772.06
2022-08-25T10:45:11.398Z,101779.34
2022-08-25T10:50:29.338Z,101768.94
2022-08-25T10:55:44.455Z,101757.38
2022-08-25T11:00:56.747Z,101760.06
2022-08-25T11:06:05.450Z,101761.81
2022-08-25T11:11:14.678Z,101757.38
2022-08-25T11:16:21.505Z,101749.31
2022-08-25T11:21:34.917Z,101743.06
2022-08-25T11:26:43.581Z,101735.91
2022-08-25T11:31:54.893Z,101735.84
2022-08-25T11:37:07.723Z,101738.53
2022-08-25T11:42:27.926Z,101737.53
2022-08-25T11:47:56.421Z,101718.75
2022-08-25T11:53:04.001Z,101723.22
2022-08-25T11:58:32.559Z,101722.44
2022-08-25T12:04:12.527Z,101722.38
2022-08-25T12:09:22.911Z,101720.59
2022-08-25T12:14:44.111Z,101706.19
2022-08-25T12:19:51.673Z,101698.13
2022-08-25T12:25:06.891Z,101690.88
2022-08-25T12:30:20.788Z,101680.91
2022-08-25T12:35:30.535Z,101670.09
2022-08-25T12:40:38.917Z,101660.91
2022-08-25T12:45:44.946Z,101654.50
2022-08-25T12:50:57.709Z,101648.16
2022-08-25T12:56:07.006Z,101641.75
2022-08-25T13:01:35.287Z,101648.56
2022-08-25T13:06:49.506Z,101643.84
2022-08-25T13:12:02.025Z,101628.34
2022-08-25T13:17:06.609Z,101627.31
2022-08-25T13:22:16.436Z,101613.81
2022-08-25T13:27:25.330Z,101621.59
2022-08-25T13:32:34.447Z,101617.50
2022-08-25T13:37:38.656Z,101609.53
2022-08-25T13:42:50.865Z,101608.72
2022-08-25T13:47:58.057Z,101610.66
2022-08-25T13:53:03.618Z,101605.28
2022-08-25T13:58:15.811Z,101596.34
2022-08-25T14:03:32.256Z,101596.41
2022-08-25T14:08:45.985Z,101588.34
2022-08-25T14:14:01.260Z,101582.91
2022-08-25T14:19:19.798Z,101585.59
2022-08-25T14:24:24.445Z,101575.69
2022-08-25T14:29:30.532Z,101575.69
2022-08-25T14:34:41.799Z,101569.38
2022-08-25T14:39:44.944Z,101565.81
2022-08-25T14:44:50.758Z,101568.59
2022-08-25T14:49:53.622Z,101552.38
2022-08-25T14:54:57.626Z,101546.06
2022-08-25T15:00:01.753Z,101532.44
2022-08-25T15:05:08.574Z,101540.56
2022-08-25T15:10:13.557Z,101535.19
2022-08-25T15:15:18.297Z,101539.66
2022-08-25T15:20:21.529Z,101529.75
2022-08-25T15:25:24.513Z,101529.72
2022-08-25T15:30:31.259Z,101514.41
2022-08-25T15:35:35.687Z,101512.66
2022-08-25T15:40:39.429Z,101517.19
2022-08-25T15:45:46.245Z,101505.53
2022-08-25T15:50:49.353Z,101510.03
2022-08-25T15:55:52.396Z,101504.69
2022-08-25T16:00:58.380Z,101499.38
2022-08-25T16:06:05.064Z,101494.91
2022-08-25T16:11:16.422Z,101494.91
2022-08-25T16:16:23.569Z,101495.78
2022-08-25T16:21:29.057Z,101476.03
2022-08-25T16:26:33.574Z,101484.13
2022-08-25T16:31:38.197Z,101492.19
2022-08-25T16:36:41.028Z,101490.41
2022-08-25T16:41:44.211Z,101475.13
2022-08-25T16:46:49.136Z,101469.69
2022-08-25T16:51:57.667Z,101475.03
2022-08-25T16:57:00.767Z,101489.38
2022-08-25T17:02:06.493Z,101489.38
2022-08-25T17:07:09.405Z,101488.41
2022-08-25T17:12:12.196Z,101497.31
2022-08-25T17:17:16.390Z,101497.25
2022-08-25T17:22:19.519Z,101491.78
2022-08-25T17:27:23.437Z,101498.97
2022-08-25T17:32:30.200Z,101489.06
2022-08-25T17:37:33.877Z,101494.34
2022-08-25T17:42:37.211Z,101498.72
2022-08-25T17:47:41.684Z,101490.53
2022-08-25T17:52:44.753Z,101501.19
2022-08-25T17:57:47.541Z,101499.25
2022-08-25T18:02:51.748Z,101506.25
2022-08-25T18:07:54.987Z,101518.72
2022-08-25T18:12:58.021Z,101511.47
2022-08-25T18:18:05.054Z,101518.47
2022-08-25T18:23:09.773Z,101515.69
2022-08-25T18:28:12.759Z,101513.78
2022-08-25T18:33:18.918Z,101518.09
2022-08-25T18:38:39.152Z,101517.03
2022-08-25T18:43:45.653Z,101522.25
2022-08-25T18:48:49.872Z,101520.38
2022-08-25T18:54:00.792Z,101537.19
2022-08-25T18:59:04.713Z,101529.03
2022-08-25T19:04:10.873Z,101527.03
2022-08-25T19:09:13.773Z,101530.41
2022-08-25T19:14:18.859Z,101527.59
2022-08-25T19:19:23.231Z,101520.31
2022-08-25T19:24:26.234Z,101519.31
2022-08-25T19:29:31.240Z,101529.03
2022-08-25T19:34:41.959Z,101527.13
2022-08-25T19:39:52.701Z,101522.63
2022-08-25T19:44:56.196Z,101530.53
2022-08-25T19:50:00.545Z,101522.25
2022-08-25T19:55:03.914Z,101520.25
2022-08-25T20:00:09.300Z,101528.25
2022-08-25T20:05:14.794Z,101524.59
2022-08-25T20:10:17.839Z,101517.22
2022-08-25T20:15:22.060Z,101524.13
2022-08-25T20:20:34.413Z,101512.38
2022-08-25T20:25:37.514Z,101517.66
2022-08-25T20:30:45.807Z,101511.41
2022-08-25T20:35:50.341Z,101523.88
2022-08-25T20:40:56.058Z,101530.06
2022-08-25T20:46:01.930Z,101532.66
2022-08-25T20:51:07.696Z,101528.25
2022-08-25T20:56:11.832Z,101529.00
2022-08-25T21:01:22.909Z,101513.91
2022-08-25T21:06:27.509Z,101519.13
2022-08-25T21:11:30.306Z,101519.91
2022-08-25T21:16:33.578Z,101523.47
2022-08-25T21:21:38.978Z,101520.72
2022-08-25T21:26:48.930Z,101508.22
2022-08-25T21:31:51.998Z,101496.63
2022-08-25T21:36:57.850Z,101505.50
2022-08-25T21:42:01.176Z,101498.34
2022-08-25T21:47:04.444Z,101491.13
2022-08-25T21:52:09.190Z,101484.75
2022-08-25T21:57:13.082Z,101495.34
2022-08-25T22:02:20.532Z,101493.56
2022-08-25T22:07:26.785Z,101491.66
2022-08-25T22:12:29.699Z,101493.28
2022-08-25T22:17:32.695Z,101491.47
2022-08-25T22:22:37.206Z,101485.97
2022-08-25T22:27:40.471Z,101478.72
2022-08-25T22:32:45.389Z,101470.56
2022-08-25T22:37:49.893Z,101463.31
2022-08-25T22:42:53.300Z,101473.13
2022-08-25T22:47:56.273Z,101468.66
2022-08-25T22:53:00.495Z,101460.59
2022-08-25T22:58:03.276Z,101459.81
2022-08-25T23:03:06.786Z,101456.22
2022-08-25T23:08:11.800Z,101450.88
2022-08-25T23:13:19.359Z,101449.13
2022-08-25T23:18:41.812Z,101449.94
2022-08-25T23:23:48.143Z,101448.09
2022-08-25T23:28:52.046Z,101443.66
2022-08-25T23:33:54.811Z,101433.81
2022-08-25T23:38:59.151Z,101431.06
2022-08-25T23:44:02.014Z,101425.81
2022-08-25T23:49:08.317Z,101429.28
2022-08-25T23:54:14.493Z,101429.34
2022-08-25T23:59:17.598Z,101421.13
